createdAt,value
2018-08-07T00:00:24.573Z,100983.33
2018-08-07T00:02:01.440Z,100979.34
2018-08-07T00:03:37.927Z,101085.45
2018-08-07T00:05:15.143Z,100906.53
2018-08-07T00:06:52.548Z,100805.50
2018-08-07T00:08:29.461Z,100841.73
2018-08-07T00:10:07.753Z,100871.72
2018-08-07T00:11:44.184Z,100927.94
2018-08-07T00:13:20.693Z,100707.82
2018-08-07T00:14:58.243Z,100655.62
2018-08-07T00:16:35.456Z,100625.80
2018-08-07T00:18:11.825Z,100518.73
2018-08-07T00:19:48.373Z,100529.92
2018-08-07T00:22:54.096Z,100537.85
2018-08-07T00:24:31.316Z,100506.56
2018-08-07T00:26:07.901Z,100549.42
2018-08-07T00:27:45.086Z,100628.91
2018-08-07T00:29:21.368Z,100702.09
2018-08-07T00:30:57.445Z,100660.10
2018-08-07T00:32:35.611Z,100733.30
2018-08-07T00:34:12.596Z,100761.25
2018-08-07T00:35:49.756Z,100812.00
2018-08-07T00:37:26.285Z,100919.61
2018-08-07T00:39:02.572Z,100923.22
2018-08-07T00:40:40.175Z,100819.18
2018-08-07T00:42:17.396Z,100734.78
2018-08-07T00:43:53.745Z,100720.12
2018-08-07T00:45:31.253Z,100698.63
2018-08-07T00:47:08.303Z,100592.90
2018-08-07T00:48:44.742Z,100521.59
2018-08-07T00:52:01.605Z,100477.91
2018-08-07T00:53:38.318Z,100335.58
2018-08-07T00:55:16.303Z,100289.83
2018-08-07T00:56:52.859Z,100333.47
2018-08-07T00:58:29.297Z,100305.81
2018-08-07T01:00:11.237Z,100290.70
2018-08-07T01:01:51.531Z,100366.50
2018-08-07T01:03:29.486Z,100425.28
2018-08-07T01:05:07.737Z,100456.44
2018-08-07T01:06:44.698Z,100447.64
2018-08-07T01:08:21.121Z,100384.73
2018-08-07T01:09:57.413Z,100360.78
2018-08-07T01:11:34.162Z,100334.33
2018-08-07T01:13:10.906Z,100383.98
2018-08-07T01:14:47.219Z,100453.95
2018-08-07T01:16:23.932Z,100406.18
2018-08-07T01:18:00.178Z,100260.59
2018-08-07T01:19:37.810Z,100256.62
2018-08-07T01:21:16.622Z,100323.81
2018-08-07T01:22:55.053Z,100346.13
2018-08-07T01:24:32.531Z,100339.80
2018-08-07T01:26:09.052Z,100303.35
2018-08-07T01:27:45.418Z,100261.20
2018-08-07T01:29:22.258Z,100313.12
2018-08-07T01:30:58.949Z,100353.70
2018-08-07T01:32:35.264Z,100368.48
2018-08-07T01:34:11.547Z,100286.38
2018-08-07T01:35:47.963Z,100256.73
2018-08-07T01:37:24.649Z,100306.45
2018-08-07T01:39:01.082Z,100292.34
2018-08-07T01:40:37.524Z,100216.59
2018-08-07T01:42:14.055Z,100176.20
2018-08-07T01:43:51.730Z,100172.23
2018-08-07T01:45:28.766Z,100126.00
2018-08-07T01:47:05.174Z,100083.66
2018-08-07T01:48:41.638Z,100147.34
2018-08-07T01:50:19.690Z,100191.44
2018-08-07T01:51:56.449Z,100161.94
2018-08-07T01:53:32.758Z,100197.27
2018-08-07T01:55:11.808Z,100299.16
2018-08-07T01:56:48.681Z,100393.91
2018-08-07T01:58:25.092Z,100426.33
2018-08-07T02:00:02.002Z,100426.17
2018-08-07T02:01:39.339Z,100438.72
2018-08-07T02:03:16.196Z,100381.27
2018-08-07T02:04:52.458Z,100381.73
2018-08-07T02:06:29.106Z,100386.11
2018-08-07T02:08:06.301Z,100364.25
2018-08-07T02:09:43.848Z,100280.19
2018-08-07T02:11:20.290Z,100238.80
2018-08-07T02:12:56.660Z,100230.86
2018-08-07T02:14:41.733Z,100245.47
2018-08-07T02:16:20.960Z,100195.16
2018-08-07T02:18:02.287Z,100165.44
2018-08-07T02:19:40.250Z,100149.31
2018-08-07T02:21:16.641Z,100132.08
2018-08-07T02:22:53.248Z,100147.23
2018-08-07T02:24:30.261Z,100215.38
2018-08-07T02:26:06.994Z,100201.48
2018-08-07T02:27:43.954Z,100107.21
2018-08-07T02:29:21.694Z,100130.86
2018-08-07T02:31:00.361Z,100108.58
2018-08-07T02:32:37.398Z,100004.19
2018-08-07T02:34:13.812Z,99832.72
2018-08-07T02:35:50.517Z,99694.52
2018-08-07T02:37:27.701Z,99576.33
2018-08-07T02:39:04.444Z,99466.36
2018-08-07T02:40:46.411Z,99442.80
2018-08-07T02:42:24.592Z,99463.27
2018-08-07T02:44:02.434Z,99488.57
2018-08-07T02:45:39.263Z,99555.95
2018-08-07T02:47:15.830Z,99655.58
2018-08-07T02:48:52.545Z,99721.73
2018-08-07T02:50:30.101Z,99731.60
2018-08-07T02:52:06.495Z,99711.59
2018-08-07T02:53:42.981Z,99740.52
2018-08-07T02:55:19.708Z,99733.70
2018-08-07T02:56:56.076Z,99704.57
2018-08-07T02:58:32.374Z,99672.19
2018-08-07T03:00:16.815Z,99641.88
2018-08-07T03:01:55.693Z,99594.09
2018-08-07T03:03:31.960Z,99513.50
2018-08-07T03:05:09.375Z,99441.19
2018-08-07T03:06:46.232Z,99405.04
2018-08-07T03:08:25.056Z,99405.04
2018-08-07T03:10:02.881Z,99418.75
2018-08-07T03:11:39.495Z,99429.37
2018-08-07T03:13:17.885Z,99429.87
2018-08-07T03:14:55.331Z,99396.14
2018-08-07T03:16:32.608Z,99331.05
2018-08-07T03:18:08.907Z,99269.55
2018-08-07T03:19:45.343Z,99215.70
2018-08-07T03:21:22.220Z,99197.84
2018-08-07T03:23:00.696Z,99222.73
2018-08-07T03:24:37.554Z,99229.77
2018-08-07T03:26:13.936Z,99239.97
2018-08-07T03:27:50.594Z,99198.34
2018-08-07T03:29:26.951Z,99169.27
2018-08-07T03:31:03.730Z,99176.29
2018-08-07T03:32:40.072Z,99149.28
2018-08-07T03:34:16.779Z,99148.58
2018-08-07T03:35:53.069Z,99131.68
2018-08-07T03:37:29.514Z,99072.48
2018-08-07T03:39:09.382Z,99047.37
2018-08-07T03:40:46.037Z,99019.05
2018-08-07T03:42:22.393Z,98966.18
2018-08-07T03:43:58.728Z,98910.94
2018-08-07T03:45:35.707Z,98849.56
2018-08-07T03:47:12.132Z,98794.53
2018-08-07T03:48:48.532Z,98783.45
2018-08-07T03:50:26.571Z,98792.31
2018-08-07T03:52:03.727Z,98815.66
2018-08-07T03:53:40.526Z,98873.05
2018-08-07T03:55:18.458Z,98928.31
2018-08-07T03:56:54.935Z,98950.45
2018-08-07T03:58:31.172Z,99031.27
2018-08-07T04:00:18.021Z,99049.72
2018-08-07T04:01:54.283Z,99076.80
2018-08-07T04:03:30.834Z,99041.50
2018-08-07T04:05:08.124Z,99044.22
2018-08-07T04:06:44.822Z,99099.99
2018-08-07T04:08:21.057Z,99147.27
2018-08-07T04:09:57.340Z,99213.89
2018-08-07T04:11:35.815Z,99121.16
2018-08-07T04:13:12.731Z,98976.30
2018-08-07T04:14:49.362Z,98858.33
2018-08-07T04:16:25.366Z,98774.52
2018-08-07T04:18:01.563Z,98700.94
2018-08-07T04:19:38.157Z,98666.70
2018-08-07T04:21:14.732Z,98651.20
2018-08-07T04:22:51.038Z,98615.45
2018-08-07T04:24:27.713Z,98628.86
2018-08-07T04:26:04.563Z,98649.48
2018-08-07T04:27:40.890Z,98662.77
2018-08-07T04:29:18.112Z,98701.95
2018-08-07T04:30:54.692Z,98724.07
2018-08-07T04:32:31.557Z,98743.84
2018-08-07T04:34:08.256Z,98780.57
2018-08-07T04:35:45.850Z,98795.58
2018-08-07T04:37:22.314Z,98814.99
2018-08-07T04:38:59.260Z,98841.05
2018-08-07T04:40:35.589Z,98838.97
2018-08-07T04:42:11.949Z,98849.19
2018-08-07T04:43:48.338Z,98856.17
2018-08-07T04:45:26.192Z,98890.61
2018-08-07T04:47:02.467Z,98929.46
2018-08-07T04:48:38.768Z,98933.53
2018-08-07T04:50:15.135Z,98971.06
2018-08-07T04:51:51.984Z,98987.94
2018-08-07T04:53:28.415Z,98972.09
2018-08-07T04:55:05.263Z,98972.91
2018-08-07T04:56:43.970Z,99022.01
2018-08-07T04:58:21.298Z,98992.38
2018-08-07T05:00:05.074Z,99042.47
2018-08-07T05:01:44.439Z,99103.02
2018-08-07T05:03:22.520Z,99157.95
2018-08-07T05:04:59.490Z,99214.25
2018-08-07T05:06:35.890Z,99276.13
2018-08-07T05:08:12.286Z,99344.77
2018-08-07T05:09:49.124Z,99364.25
2018-08-07T05:11:25.732Z,99408.51
2018-08-07T05:13:03.837Z,99445.25
2018-08-07T05:14:42.586Z,99465.39
2018-08-07T05:16:19.589Z,99485.38
2018-08-07T05:17:56.749Z,99481.78
2018-08-07T05:19:33.063Z,99473.42
2018-08-07T05:21:09.512Z,99481.42
2018-08-07T05:22:47.064Z,99429.63
2018-08-07T05:24:24.728Z,99446.77
2018-08-07T05:26:01.227Z,99514.78
2018-08-07T05:27:37.925Z,99546.75
2018-08-07T05:29:15.508Z,99506.01
2018-08-07T05:30:52.285Z,99570.20
2018-08-07T05:32:28.556Z,99581.80
2018-08-07T05:34:04.906Z,99643.67
2018-08-07T05:35:42.131Z,99753.76
2018-08-07T05:37:18.748Z,99820.90
2018-08-07T05:38:56.685Z,99845.25
2018-08-07T05:40:32.987Z,99888.40
2018-08-07T05:42:18.993Z,99985.75
2018-08-07T05:44:05.201Z,100004.43
2018-08-07T05:45:49.681Z,100029.80
2018-08-07T05:47:29.446Z,100065.00
2018-08-07T05:49:06.963Z,100135.32
2018-08-07T05:50:45.019Z,100162.08
2018-08-07T05:52:21.241Z,100247.54
2018-08-07T05:53:58.113Z,100341.15
2018-08-07T05:55:36.390Z,100378.98
2018-08-07T05:57:14.376Z,100417.91
2018-08-07T05:58:50.750Z,100527.11
2018-08-07T06:00:27.235Z,100616.77
2018-08-07T06:02:11.642Z,100672.66
2018-08-07T06:03:50.296Z,100800.13
2018-08-07T06:05:27.902Z,100935.45
2018-08-07T06:07:04.730Z,101030.37
2018-08-07T06:08:41.683Z,101253.81
2018-08-07T06:10:19.301Z,101398.47
2018-08-07T06:11:58.039Z,101397.34
2018-08-07T06:13:37.586Z,101478.52
2018-08-07T06:15:18.096Z,101489.38
2018-08-07T06:16:54.426Z,101547.81
2018-08-07T06:18:31.405Z,101480.52
2018-08-07T06:20:16.927Z,101458.08
2018-08-07T06:22:00.049Z,101354.17
2018-08-07T06:23:42.833Z,101182.54
2018-08-07T06:25:19.869Z,100982.95
2018-08-07T06:26:56.265Z,100918.26
2018-08-07T06:28:33.667Z,100932.58
2018-08-07T06:30:20.588Z,100914.16
2018-08-07T06:31:58.965Z,100881.59
2018-08-07T06:33:38.794Z,100926.73
2018-08-07T06:35:17.256Z,100943.27
2018-08-07T06:36:53.914Z,100959.83
2018-08-07T06:38:31.026Z,101023.50
2018-08-07T06:40:11.842Z,101071.69
2018-08-07T06:41:49.239Z,101134.82
2018-08-07T06:43:27.510Z,101197.88
2018-08-07T06:45:06.524Z,101228.02
2018-08-07T06:46:43.162Z,101246.33
2018-08-07T06:48:19.861Z,101348.06
2018-08-07T06:50:01.495Z,101415.38
2018-08-07T06:51:38.074Z,101538.75
2018-08-07T06:53:14.382Z,101647.90
2018-08-07T06:54:53.608Z,101802.43
2018-08-07T06:56:29.859Z,101926.49
2018-08-07T06:58:06.438Z,102037.31
2018-08-07T06:59:42.709Z,102068.36
2018-08-07T07:01:19.655Z,101994.61
2018-08-07T07:02:59.041Z,101962.48
2018-08-07T07:04:35.246Z,102083.75
2018-08-07T07:06:11.579Z,102231.00
2018-08-07T07:07:48.332Z,102295.91
2018-08-07T07:09:25.706Z,102381.53
2018-08-07T07:11:02.066Z,102329.36
2018-08-07T07:12:39.680Z,102182.39
2018-08-07T07:14:17.360Z,101948.70
2018-08-07T07:15:54.053Z,101892.19
2018-08-07T07:19:08.872Z,101965.86
2018-08-07T07:20:51.631Z,101928.17
2018-08-07T07:22:31.786Z,101959.59
2018-08-07T07:24:10.375Z,102172.63
2018-08-07T07:25:47.697Z,102359.96
2018-08-07T07:27:24.403Z,102561.16
2018-08-07T07:29:05.068Z,102697.11
2018-08-07T07:30:46.518Z,102731.91
2018-08-07T07:32:25.350Z,102716.16
2018-08-07T07:34:02.665Z,102673.63
2018-08-07T07:35:39.039Z,102524.63
2018-08-07T07:37:19.004Z,102664.67
2018-08-07T07:38:57.386Z,102953.01
2018-08-07T07:40:34.848Z,103100.94
2018-08-07T07:42:13.009Z,103237.41
2018-08-07T07:43:49.627Z,103203.49
2018-08-07T07:45:26.655Z,103088.84
2018-08-07T07:47:03.449Z,103140.80
2018-08-07T07:48:39.729Z,103139.91
2018-08-07T07:50:21.922Z,103087.06
2018-08-07T07:51:59.491Z,102971.50
2018-08-07T07:53:41.606Z,103054.38
2018-08-07T07:55:23.480Z,103326.67
2018-08-07T07:57:00.511Z,103575.23
2018-08-07T07:58:37.633Z,103798.27
2018-08-07T08:00:30.329Z,103670.05
2018-08-07T08:02:10.474Z,103374.81
2018-08-07T08:03:48.532Z,103299.38
2018-08-07T08:07:21.704Z,103421.00
2018-08-07T08:09:06.933Z,103674.08
2018-08-07T08:10:48.831Z,103685.94
2018-08-07T08:12:27.650Z,103823.22
2018-08-07T08:14:06.602Z,104044.18
2018-08-07T08:15:44.810Z,104222.73
2018-08-07T08:17:21.916Z,104231.41
2018-08-07T08:19:00.104Z,104109.72
2018-08-07T08:20:37.802Z,104056.06
2018-08-07T08:22:16.077Z,104121.08
2018-08-07T08:23:53.339Z,104277.78
2018-08-07T08:25:32.647Z,104314.75
2018-08-07T08:27:14.506Z,104397.71
2018-08-07T08:28:52.514Z,104371.25
2018-08-07T08:30:31.431Z,104162.00
2018-08-07T08:32:08.570Z,103956.20
2018-08-07T08:33:44.954Z,103904.86
2018-08-07T08:35:24.699Z,104095.46
2018-08-07T08:37:00.934Z,104229.28
2018-08-07T08:38:40.567Z,104486.70
2018-08-07T08:40:19.556Z,104550.27
2018-08-07T08:41:56.782Z,104554.77
2018-08-07T08:43:34.477Z,104542.85
2018-08-07T08:45:18.422Z,104461.13
2018-08-07T08:46:54.729Z,104472.06
2018-08-07T08:48:32.105Z,104470.67
2018-08-07T08:50:15.360Z,104544.48
2018-08-07T08:51:55.777Z,104615.83
2018-08-07T08:53:41.278Z,104659.14
2018-08-07T08:55:23.528Z,104663.59
2018-08-07T08:57:03.550Z,104392.45
2018-08-07T08:58:39.948Z,104258.83
2018-08-07T09:00:26.090Z,104250.91
2018-08-07T09:02:06.175Z,104268.73
2018-08-07T09:03:43.321Z,104330.19
2018-08-07T09:05:21.639Z,104367.98
2018-08-07T09:07:00.150Z,104412.70
2018-08-07T09:08:39.077Z,104457.83
2018-08-07T09:10:27.712Z,104493.81
2018-08-07T09:12:04.823Z,104523.39
2018-08-07T09:13:42.001Z,104609.75
2018-08-07T09:15:19.959Z,104623.34
2018-08-07T09:16:57.015Z,104541.50
2018-08-07T09:18:34.886Z,104540.20
2018-08-07T09:20:30.050Z,104535.95
2018-08-07T09:22:14.456Z,104586.65
2018-08-07T09:23:51.786Z,104406.39
2018-08-07T09:25:29.597Z,104302.26
2018-08-07T09:27:06.923Z,104299.48
2018-08-07T09:28:45.275Z,104260.64
2018-08-07T09:30:26.483Z,104268.78
2018-08-07T09:32:08.475Z,104261.94
2018-08-07T09:33:44.885Z,103886.03
2018-08-07T09:35:22.666Z,103515.72
2018-08-07T09:37:00.782Z,103692.30
2018-08-07T09:38:37.050Z,103908.10
2018-08-07T09:40:16.302Z,104062.26
2018-08-07T09:41:54.506Z,104108.14
2018-08-07T09:43:30.886Z,104132.29
2018-08-07T09:45:11.494Z,104215.59
2018-08-07T09:46:50.505Z,104299.95
2018-08-07T09:48:28.113Z,104345.36
2018-08-07T09:50:05.919Z,104413.76
2018-08-07T09:51:42.258Z,104485.39
2018-08-07T09:53:18.621Z,104525.09
2018-08-07T09:54:56.863Z,104506.33
2018-08-07T09:56:33.159Z,104511.70
2018-08-07T09:58:10.714Z,104445.50
2018-08-07T09:59:50.643Z,104504.77
2018-08-07T10:01:37.939Z,104524.41
2018-08-07T10:03:18.742Z,104466.86
2018-08-07T10:04:55.095Z,104487.80
2018-08-07T10:06:34.669Z,104496.44
2018-08-07T10:08:12.993Z,104492.69
2018-08-07T10:09:50.532Z,104498.64
2018-08-07T10:11:33.089Z,104523.34
2018-08-07T10:13:18.117Z,104536.03
2018-08-07T10:16:48.812Z,104566.40
2018-08-07T10:18:26.944Z,104554.11
2018-08-07T10:20:04.699Z,104553.22
2018-08-07T10:21:42.414Z,104426.22
2018-08-07T10:23:20.433Z,104505.09
2018-08-07T10:24:58.649Z,104515.04
2018-08-07T10:26:35.186Z,104484.39
2018-08-07T10:28:14.639Z,104411.48
2018-08-07T10:29:51.528Z,104361.65
2018-08-07T10:31:47.684Z,104362.86
2018-08-07T10:33:26.041Z,104404.91
2018-08-07T10:35:02.870Z,104449.05
2018-08-07T10:36:39.556Z,104520.22
2018-08-07T10:38:15.950Z,104608.68
2018-08-07T10:39:53.507Z,104616.92
2018-08-07T10:41:30.728Z,104406.53
2018-08-07T10:43:09.696Z,104439.74
2018-08-07T10:44:46.427Z,104608.11
2018-08-07T10:46:25.345Z,104462.88
2018-08-07T10:48:02.398Z,104158.83
2018-08-07T10:49:39.843Z,104009.86
2018-08-07T10:51:19.067Z,104125.02
2018-08-07T10:52:59.674Z,104369.16
2018-08-07T10:54:38.859Z,104229.64
2018-08-07T10:56:16.070Z,104207.84
2018-08-07T10:57:59.202Z,104403.66
2018-08-07T10:59:36.120Z,104474.41
2018-08-07T11:01:14.418Z,104407.73
2018-08-07T11:02:52.461Z,104353.80
2018-08-07T11:04:29.198Z,104313.69
2018-08-07T11:06:06.352Z,104086.70
2018-08-07T11:07:43.704Z,103975.23
2018-08-07T11:09:20.922Z,103846.00
2018-08-07T11:10:58.465Z,103725.50
2018-08-07T11:12:41.241Z,103715.11
2018-08-07T11:14:26.882Z,103800.80
2018-08-07T11:16:18.458Z,103918.95
2018-08-07T11:18:14.492Z,104230.25
2018-08-07T11:19:54.330Z,104429.49
2018-08-07T11:21:31.910Z,104539.36
2018-08-07T11:23:09.734Z,104609.26
2018-08-07T11:24:52.077Z,104598.52
2018-08-07T11:26:29.538Z,104604.97
2018-08-07T11:28:08.820Z,104667.09
2018-08-07T11:29:46.554Z,104688.53
2018-08-07T11:31:23.654Z,104777.17
2018-08-07T11:33:04.234Z,104845.25
2018-08-07T11:34:40.701Z,104848.44
2018-08-07T11:36:19.112Z,104698.47
2018-08-07T11:37:59.266Z,104746.36
2018-08-07T11:39:36.705Z,104751.83
2018-08-07T11:41:16.919Z,104870.23
2018-08-07T11:42:54.118Z,104876.61
2018-08-07T11:44:31.130Z,104905.77
2018-08-07T11:46:09.541Z,104653.88
2018-08-07T11:47:46.720Z,104601.72
2018-08-07T11:49:23.467Z,104576.52
2018-08-07T11:51:14.980Z,104745.20
2018-08-07T11:53:00.904Z,104920.08
2018-08-07T11:54:47.610Z,104952.52
2018-08-07T11:56:26.965Z,104931.45
2018-08-07T11:58:05.594Z,104842.73
2018-08-07T11:59:45.101Z,104785.54
2018-08-07T12:01:22.852Z,104630.98
2018-08-07T12:03:00.105Z,104341.73
2018-08-07T12:04:37.412Z,103983.62
2018-08-07T12:06:15.673Z,103964.91
2018-08-07T12:07:52.709Z,104095.52
2018-08-07T12:09:29.054Z,104232.59
2018-08-07T12:11:07.989Z,104389.34
2018-08-07T12:12:46.614Z,104620.15
2018-08-07T12:14:29.469Z,104674.48
2018-08-07T12:16:08.188Z,104723.76
2018-08-07T12:17:46.236Z,104755.27
2018-08-07T12:19:24.106Z,104747.42
2018-08-07T12:21:05.368Z,104725.47
2018-08-07T12:22:44.954Z,104639.41
2018-08-07T12:24:22.304Z,104358.80
2018-08-07T12:26:05.568Z,104484.23
2018-08-07T12:27:43.135Z,104591.45
2018-08-07T12:29:20.996Z,104642.51
2018-08-07T12:30:59.473Z,104647.09
2018-08-07T12:32:38.186Z,104572.98
2018-08-07T12:34:15.380Z,104587.60
2018-08-07T12:35:53.910Z,104593.44
2018-08-07T12:37:33.207Z,104490.67
2018-08-07T12:39:10.866Z,104576.08
2018-08-07T12:42:56.117Z,104763.66
2018-08-07T12:44:34.105Z,104767.75
2018-08-07T12:46:10.513Z,104644.81
2018-08-07T12:47:47.289Z,104716.48
2018-08-07T12:49:23.560Z,104679.87
2018-08-07T12:50:59.197Z,104658.82
2018-08-07T12:52:37.981Z,104675.70
2018-08-07T12:54:13.256Z,104703.96
2018-08-07T12:55:50.121Z,104703.96
2018-08-07T12:57:26.705Z,104713.40
2018-08-07T12:59:04.645Z,104768.34
2018-08-07T13:00:40.344Z,104813.08
2018-08-07T13:02:20.331Z,104771.84
2018-08-07T13:04:03.756Z,104759.50
2018-08-07T13:05:39.202Z,104736.16
2018-08-07T13:07:16.042Z,104764.40
2018-08-07T13:08:52.840Z,104773.92
2018-08-07T13:10:28.755Z,104803.16
2018-08-07T13:12:05.241Z,104819.16
2018-08-07T13:13:41.586Z,104827.81
2018-08-07T13:15:21.762Z,104759.61
2018-08-07T13:17:00.619Z,104723.84
2018-08-07T13:18:37.481Z,104744.03
2018-08-07T13:20:25.911Z,104769.95
2018-08-07T13:22:02.697Z,104771.83
2018-08-07T13:23:44.787Z,104726.93
2018-08-07T13:27:04.265Z,104867.63
2018-08-07T13:28:40.322Z,104914.19
2018-08-07T13:30:26.807Z,104908.83
2018-08-07T13:32:03.314Z,104931.98
2018-08-07T13:33:38.596Z,104881.16
2018-08-07T13:35:14.112Z,104813.95
2018-08-07T13:36:53.116Z,104712.81
2018-08-07T13:38:29.467Z,104696.82
2018-08-07T13:40:16.511Z,104687.67
2018-08-07T13:41:57.089Z,104702.66
2018-08-07T13:43:34.009Z,104734.09
2018-08-07T13:47:02.897Z,104742.22
2018-08-07T13:48:40.190Z,104737.19
2018-08-07T13:50:23.825Z,104713.41
2018-08-07T13:51:59.175Z,104614.25
2018-08-07T13:53:34.424Z,104584.95
2018-08-07T18:24:17.648Z,103500.22
2018-08-07T18:25:53.276Z,103517.03
2018-08-07T18:27:30.432Z,103511.09
2018-08-07T18:29:08.450Z,103549.61
2018-08-07T18:30:48.279Z,103549.22
2018-08-07T18:32:26.558Z,103525.11
2018-08-07T18:34:02.567Z,103545.05
2018-08-07T18:35:41.189Z,103568.56
2018-08-07T18:37:19.509Z,103605.84
2018-08-07T18:38:54.832Z,103590.41
2018-08-07T18:40:32.348Z,103587.14
2018-08-07T18:42:10.165Z,103578.95
2018-08-07T18:43:45.627Z,103583.48
2018-08-07T18:45:22.133Z,103575.30
2018-08-07T18:46:57.744Z,103550.78
2018-08-07T18:48:33.820Z,103556.73
2018-08-07T18:50:14.091Z,103552.92
2018-08-07T18:51:50.231Z,103524.76
2018-08-07T18:53:26.431Z,103505.80
2018-08-07T18:55:02.402Z,103501.14
2018-08-07T18:56:42.610Z,103510.74
2018-08-07T18:58:21.264Z,103501.28
2018-08-07T18:59:57.994Z,103494.35
2018-08-07T19:01:45.131Z,103480.70
2018-08-07T19:03:21.814Z,103482.09
2018-08-07T19:04:57.509Z,103467.58
2018-08-07T19:06:33.915Z,103459.84
2018-08-07T19:08:14.732Z,103431.58
2018-08-07T19:11:46.824Z,103426.64
2018-08-07T19:13:28.670Z,103390.81
2018-08-07T19:15:08.684Z,103380.22
2018-08-07T19:16:50.083Z,103357.12
2018-08-07T19:18:25.653Z,103336.80
2018-08-07T19:20:03.207Z,103247.45
2018-08-07T19:21:39.115Z,103193.63
2018-08-07T19:23:15.026Z,103157.70
2018-08-07T19:24:50.821Z,103058.99
2018-08-07T19:26:26.228Z,102977.53
2018-08-07T19:28:02.285Z,102926.02
2018-08-07T19:29:39.331Z,102887.98
2018-08-07T19:31:15.831Z,102860.03
2018-08-07T19:32:53.853Z,102807.06
2018-08-07T19:34:48.526Z,102762.64
2018-08-07T19:38:38.738Z,102633.50
2018-08-07T19:40:19.909Z,102585.13
2018-08-07T19:42:03.450Z,102557.59
2018-08-07T19:43:42.742Z,102519.14
2018-08-07T19:45:18.898Z,102512.89
2018-08-07T19:46:54.839Z,102475.83
2018-08-07T19:48:34.713Z,102440.14
2018-08-07T19:50:14.446Z,102478.09
2018-08-07T19:51:52.659Z,102526.70
2018-08-07T19:53:29.527Z,102525.33
2018-08-07T19:55:06.619Z,102521.30
2018-08-07T19:56:42.384Z,102501.95
2018-08-07T19:58:17.868Z,102464.86
2018-08-07T19:59:55.584Z,102446.02
2018-08-07T20:01:34.496Z,102478.47
2018-08-07T20:03:11.554Z,102505.10
2018-08-07T20:04:49.770Z,102512.24
2018-08-07T20:06:28.533Z,102465.39
2018-08-07T20:08:05.234Z,102438.38
2018-08-07T20:09:45.482Z,102434.63
2018-08-07T20:11:31.221Z,102379.13
2018-08-07T20:13:14.299Z,102267.42
2018-08-07T20:14:53.171Z,102159.84
2018-08-07T20:16:30.259Z,102031.97
2018-08-07T20:18:10.295Z,101911.87
2018-08-07T20:19:46.661Z,101847.52
2018-08-07T20:21:24.344Z,101767.66
2018-08-07T20:23:05.151Z,101698.50
2018-08-07T20:24:41.309Z,101606.13
2018-08-07T20:26:19.778Z,101579.63
2018-08-07T20:28:05.440Z,101594.86
2018-08-07T20:29:50.876Z,101644.23
2018-08-07T20:31:46.627Z,101677.76
2018-08-07T20:33:23.853Z,101805.84
2018-08-07T20:35:00.166Z,101932.91
2018-08-07T20:36:36.887Z,102011.19
2018-08-07T20:38:14.585Z,102004.80
2018-08-07T20:39:51.016Z,101960.72
2018-08-07T20:41:26.531Z,102001.28
2018-08-07T20:43:06.626Z,102039.97
2018-08-07T20:44:46.494Z,102022.44
2018-08-07T20:46:23.271Z,101968.33
2018-08-07T20:48:07.353Z,101862.39
2018-08-07T20:49:45.674Z,101652.71
2018-08-07T20:51:24.136Z,101556.27
2018-08-07T20:53:00.836Z,101594.86
2018-08-07T20:54:38.123Z,101590.85
2018-08-07T20:56:14.370Z,101588.60
2018-08-07T20:57:54.851Z,101597.11
2018-08-07T20:59:35.043Z,101513.29
2018-08-07T21:01:14.874Z,101411.84
2018-08-07T21:02:50.732Z,101320.38
2018-08-07T21:04:27.212Z,101293.04
2018-08-07T21:06:05.525Z,101263.09
2018-08-07T21:07:45.063Z,101220.53
2018-08-07T21:09:22.781Z,101122.19
2018-08-07T21:10:59.244Z,101077.08
2018-08-07T21:12:34.913Z,101016.48
2018-08-07T21:14:13.613Z,101083.82
2018-08-07T21:15:53.605Z,100947.74
2018-08-07T21:17:32.594Z,100884.64
2018-08-07T21:19:09.948Z,100860.12
2018-08-07T21:20:45.857Z,100864.23
2018-08-07T21:22:21.767Z,100963.33
2018-08-07T21:23:59.390Z,101156.58
2018-08-07T21:25:35.577Z,101231.65
2018-08-07T21:27:13.005Z,101294.91
2018-08-07T21:28:48.355Z,101335.33
2018-08-07T21:30:27.566Z,101273.58
2018-08-07T21:32:07.383Z,101342.19
2018-08-07T21:33:45.590Z,101398.25
2018-08-07T21:35:21.112Z,101380.66
2018-08-07T21:36:56.644Z,101303.16
2018-08-07T21:38:58.063Z,101164.44
2018-08-07T21:40:42.759Z,100985.98
2018-08-07T21:42:31.369Z,100851.89
2018-08-07T21:44:10.644Z,100715.31
2018-08-07T21:45:48.833Z,100628.64
2018-08-07T21:47:29.108Z,100559.55
2018-08-07T21:49:05.079Z,100518.95
2018-08-07T21:50:40.466Z,100485.02
2018-08-07T21:52:15.858Z,100486.02
2018-08-07T21:53:51.332Z,100468.14
2018-08-07T21:55:28.842Z,100492.11
2018-08-07T21:57:04.639Z,100541.67
2018-08-07T21:58:40.746Z,100584.66
2018-08-07T22:00:32.670Z,100563.66
2018-08-07T22:02:09.058Z,100568.02
2018-08-07T22:03:48.581Z,100607.02
2018-08-07T22:05:24.801Z,100642.58
2018-08-07T22:07:02.548Z,100673.92
2018-08-07T22:08:38.683Z,100691.31
2018-08-07T22:10:21.503Z,100715.31
2018-08-07T22:12:00.352Z,100746.66
2018-08-07T22:13:38.643Z,100757.87
2018-08-07T22:15:21.444Z,100752.02
2018-08-07T22:16:57.766Z,100772.53
2018-08-07T22:18:35.206Z,100774.41
2018-08-07T22:20:11.793Z,100782.50
2018-08-07T22:21:50.951Z,100765.44
2018-08-07T22:23:26.375Z,100762.11
2018-08-07T22:25:02.807Z,100757.12
2018-08-07T22:26:41.361Z,100774.41
2018-08-07T22:28:19.880Z,100786.11
2018-08-07T22:29:57.580Z,100862.48
2018-08-07T22:31:34.929Z,101009.68
2018-08-07T22:33:10.297Z,101171.70
2018-08-07T22:34:45.658Z,101253.11
2018-08-07T22:36:21.671Z,101335.62
2018-08-07T22:37:57.205Z,101395.63
2018-08-07T22:39:33.938Z,101423.48
2018-08-07T22:41:10.850Z,101410.13
2018-08-07T22:42:46.569Z,101418.75
2018-08-07T22:44:24.499Z,101412.50
2018-08-07T22:46:01.316Z,101395.91
2018-08-07T22:47:39.056Z,101372.57
2018-08-07T22:49:16.204Z,101408.00
2018-08-07T22:50:51.556Z,101383.06
2018-08-07T22:52:32.019Z,101331.52
2018-08-07T22:54:11.445Z,101118.25
2018-08-07T22:55:47.318Z,100905.14
2018-08-07T22:57:23.518Z,100690.27
2018-08-07T22:58:59.505Z,100558.14
2018-08-07T23:00:35.722Z,100521.23
2018-08-07T23:02:11.190Z,100462.26
2018-08-07T23:03:47.052Z,100444.98
2018-08-07T23:05:24.475Z,100489.95
2018-08-07T23:06:59.942Z,100528.31
2018-08-07T23:08:35.328Z,100576.14
2018-08-07T23:10:17.813Z,100629.09
2018-08-07T23:11:53.258Z,100644.36
2018-08-07T23:13:29.982Z,100585.48
2018-08-07T23:15:11.402Z,100552.55
2018-08-07T23:16:46.982Z,100515.05
2018-08-07T23:18:22.781Z,100495.42
2018-08-07T23:20:01.391Z,100424.88
2018-08-07T23:21:37.370Z,100398.31
2018-08-07T23:23:13.090Z,100375.59
2018-08-07T23:24:49.855Z,100355.63
2018-08-07T23:26:27.046Z,100362.34
2018-08-07T23:28:03.734Z,100378.70
2018-08-07T23:29:40.090Z,100398.44
2018-08-07T23:31:18.300Z,100367.68
2018-08-07T23:32:53.928Z,100307.61